Main page

Airports :

Hanover, Germany

Hannover Airport

latitude: 52-28N, longitude: 009-41E, elevation: 56 m

Current weather observation

The report was made 33 minutes ago, at 07:20 UTC
Wind 3 kt from the East/Northeast
Temperature 1°C
Humidity 100%
Pressure 1015 hPa
Visibility: 0100 m

METAR: EDDV 230720Z 07003KT 0100 R27R/0325N R27L/0400N FG NSC 01/01 Q1015 TEMPO BKN001

Time: 09:53 (07:53 UTC)


The report was made 2 hours and 53 minutes ago, at 05:00 UTC
Forecast valid from 23 at 06 UTC to 24 at 06 UTC
Wind 5 kt from the South/Southeast
Visibility: 1500 m
Scattered clouds at a height of 2500 ft
from 23 at 06 UTC to 23 at 09 UTC
Visibility: 0400 m
Broken clouds at a height of 100 ft
from 23 at 09 UTC to 23 at 11 UTC
Visibility: 9000 m
from 23 at 22 UTC to 24 at 01 UTC
Visibility: 4000 m
from 24 at 01 UTC to 24 at 06 UTC
Visibility: 2000 m
Broken clouds at a height of 400 ft

TAF: EDDV 230500Z 2306/2406 16005KT 1500 BR SCT025 TEMPO 2306/2309 0400 FG BKN001 BECMG 2309/2311 9000 BECMG 2322/2401 4000 BR TEMPO 2401/2406 2000 BR BKN004


Weather observations and forecasts of more than 4000 airports (METAR and TAF reports).

The available stations are represented by yellow and red dots on the map.

Hover mouse over dot to see the name of the station.

Then click to see weather observations and forecasts.

To change the map : click on the green buttons with a black cross to zoom in, on the green button with a dash to zoom out, or on the green arrows for adjacent maps.